createdAt,value
2023-09-15T00:00:54.885Z,13.79
2023-09-15T00:03:22.652Z,13.78
2023-09-15T00:05:50.376Z,13.74
2023-09-15T00:08:18.146Z,13.78
2023-09-15T00:10:47.428Z,13.82
2023-09-15T00:13:17.160Z,13.84
2023-09-15T00:15:46.490Z,14.18
2023-09-15T00:18:14.400Z,13.99
2023-09-15T00:20:42.119Z,13.87
2023-09-15T00:23:09.850Z,13.88
2023-09-15T00:25:37.572Z,13.77
2023-09-15T00:28:06.180Z,13.90
2023-09-15T00:30:35.797Z,13.80
2023-09-15T00:33:05.220Z,13.77
2023-09-15T00:35:33.074Z,13.80
2023-09-15T00:38:00.805Z,13.81
2023-09-15T00:40:29.012Z,13.78
2023-09-15T00:42:57.539Z,13.74
2023-09-15T00:45:26.304Z,13.86
2023-09-15T00:47:59.251Z,13.95
2023-09-15T00:50:29.908Z,13.99
2023-09-15T00:53:00.242Z,13.76
2023-09-15T00:55:30.224Z,13.62
2023-09-15T00:58:00.008Z,13.62
2023-09-15T01:00:29.104Z,13.86
2023-09-15T01:02:58.947Z,13.68
2023-09-15T01:05:30.008Z,13.93
2023-09-15T01:07:58.084Z,13.65
2023-09-15T01:10:26.148Z,13.85
2023-09-15T01:12:56.091Z,13.77
2023-09-15T01:15:30.308Z,13.63
2023-09-15T01:18:09.221Z,13.77
2023-09-15T01:21:02.630Z,13.54
2023-09-15T01:24:00.355Z,13.61
2023-09-15T01:26:55.155Z,13.63
2023-09-15T01:29:50.187Z,13.49
2023-09-15T01:32:21.064Z,13.33
2023-09-15T01:34:51.684Z,13.30
2023-09-15T01:37:20.188Z,13.27
2023-09-15T01:39:48.599Z,13.36
2023-09-15T01:42:16.378Z,13.32
2023-09-15T01:44:44.839Z,13.30
2023-09-15T01:47:20.673Z,13.26
2023-09-15T01:49:50.743Z,13.24
2023-09-15T01:52:19.298Z,13.84
2023-09-15T01:54:48.098Z,13.38
2023-09-15T01:57:15.894Z,13.33
2023-09-15T01:59:43.662Z,13.36
2023-09-15T02:02:12.171Z,13.48
2023-09-15T02:04:41.475Z,13.25
2023-09-15T02:07:10.509Z,13.36
2023-09-15T02:09:37.387Z,13.33
2023-09-15T02:12:06.134Z,13.22
2023-09-15T02:14:36.370Z,13.55
2023-09-15T02:17:05.519Z,13.35
2023-09-15T02:19:33.841Z,13.53
2023-09-15T02:22:03.382Z,13.27
2023-09-15T02:24:32.849Z,13.24
2023-09-15T02:27:01.020Z,13.26
2023-09-15T02:29:28.794Z,13.25
2023-09-15T02:31:56.724Z,13.28
2023-09-15T02:34:24.822Z,13.18
2023-09-15T02:36:52.609Z,12.93
2023-09-15T02:39:21.992Z,13.11
2023-09-15T02:41:49.898Z,13.07
2023-09-15T02:44:17.763Z,13.15
2023-09-15T02:46:45.564Z,12.93
2023-09-15T02:49:13.797Z,13.26
2023-09-15T02:51:42.928Z,13.16
2023-09-15T02:54:10.724Z,13.37
2023-09-15T02:56:40.624Z,13.09
2023-09-15T02:59:08.812Z,13.24
2023-09-15T03:01:37.872Z,12.98
2023-09-15T03:04:07.059Z,13.03
2023-09-15T03:06:34.931Z,13.13
2023-09-15T03:09:02.720Z,12.97
2023-09-15T03:11:31.745Z,12.90
2023-09-15T03:14:04.234Z,12.93
2023-09-15T03:16:32.272Z,12.97
2023-09-15T03:19:00.355Z,12.82
2023-09-15T03:21:28.779Z,12.98
2023-09-15T03:23:57.215Z,12.91
2023-09-15T03:26:26.426Z,13.05
2023-09-15T03:28:54.881Z,13.04
2023-09-15T03:31:24.172Z,12.99
2023-09-15T03:33:52.188Z,12.97
2023-09-15T03:36:20.185Z,12.77
2023-09-15T03:38:48.536Z,12.66
2023-09-15T03:41:16.707Z,12.83
2023-09-15T03:43:44.532Z,12.99
2023-09-15T03:46:12.469Z,12.76
2023-09-15T03:48:42.950Z,12.77
2023-09-15T03:51:10.914Z,12.66
2023-09-15T03:53:38.679Z,12.71
2023-09-15T03:56:06.513Z,12.68
2023-09-15T03:58:34.370Z,12.54
2023-09-15T04:01:04.139Z,12.66
2023-09-15T04:03:32.311Z,12.82
2023-09-15T04:06:01.516Z,12.54
2023-09-15T04:08:29.315Z,12.59
2023-09-15T04:10:58.248Z,12.74
2023-09-15T04:13:26.012Z,12.86
2023-09-15T04:15:53.912Z,12.75
2023-09-15T04:18:22.283Z,12.79
2023-09-15T04:20:51.436Z,12.82
2023-09-15T04:23:20.874Z,12.61
2023-09-15T04:25:49.867Z,12.65
2023-09-15T04:28:18.020Z,12.81
2023-09-15T04:30:47.350Z,12.91
2023-09-15T04:33:16.593Z,12.68
2023-09-15T04:35:45.620Z,12.75
2023-09-15T04:38:13.523Z,12.42
2023-09-15T04:40:43.108Z,12.57
2023-09-15T04:43:11.049Z,12.72
2023-09-15T04:45:39.213Z,12.79
2023-09-15T04:48:07.979Z,12.48
2023-09-15T04:50:37.598Z,12.46
2023-09-15T04:53:08.547Z,12.33
2023-09-15T04:55:38.480Z,12.62
2023-09-15T04:58:09.371Z,12.54
2023-09-15T05:00:37.483Z,12.79
2023-09-15T05:03:09.282Z,12.44
2023-09-15T05:05:37.191Z,12.49
2023-09-15T05:08:05.952Z,12.61
2023-09-15T05:10:34.970Z,12.28
2023-09-15T05:13:06.769Z,12.33
2023-09-15T05:15:37.472Z,12.27
2023-09-15T05:18:05.877Z,12.33
2023-09-15T05:20:34.847Z,12.19
2023-09-15T05:23:05.026Z,12.36
2023-09-15T05:25:32.814Z,12.43
2023-09-15T05:28:02.610Z,12.58
2023-09-15T05:30:32.398Z,12.46
2023-09-15T05:33:02.409Z,12.29
2023-09-15T05:35:30.917Z,12.34
2023-09-15T05:37:58.801Z,12.33
2023-09-15T05:40:26.758Z,12.50
2023-09-15T05:42:55.655Z,12.33
2023-09-15T05:45:23.595Z,12.75
2023-09-15T05:47:51.679Z,12.50
2023-09-15T05:50:20.880Z,12.34
2023-09-15T05:52:48.696Z,12.66
2023-09-15T05:55:16.600Z,12.67
2023-09-15T05:57:44.489Z,13.23
2023-09-15T06:00:13.638Z,13.25
2023-09-15T06:02:44.027Z,13.29
2023-09-15T06:05:12.013Z,13.48
2023-09-15T06:07:41.779Z,12.82
2023-09-15T06:10:10.093Z,12.87
2023-09-15T06:12:38.116Z,13.03
2023-09-15T06:15:06.394Z,13.22
2023-09-15T06:17:35.274Z,13.55
2023-09-15T06:20:05.564Z,13.66
2023-09-15T06:22:33.307Z,13.66
2023-09-15T06:25:03.898Z,13.27
2023-09-15T06:27:33.978Z,13.60
2023-09-15T06:30:05.015Z,13.36
2023-09-15T06:32:32.943Z,13.33
2023-09-15T06:35:00.700Z,13.40
2023-09-15T06:37:28.568Z,13.34
2023-09-15T06:39:56.445Z,13.75
2023-09-15T06:42:25.549Z,13.79
2023-09-15T06:44:53.278Z,13.72
2023-09-15T06:47:21.517Z,13.58
2023-09-15T06:49:49.383Z,13.56
2023-09-15T06:52:17.548Z,13.78
2023-09-15T06:54:45.436Z,13.67
2023-09-15T06:57:13.492Z,13.61
2023-09-15T06:59:42.603Z,13.88
2023-09-15T07:02:10.322Z,13.85
2023-09-15T07:04:44.723Z,13.86
2023-09-15T07:07:12.910Z,14.02
2023-09-15T07:09:40.948Z,14.09
2023-09-15T07:12:09.708Z,14.39
2023-09-15T07:14:37.562Z,14.47
2023-09-15T07:17:07.421Z,14.64
2023-09-15T07:19:35.301Z,14.56
2023-09-15T07:22:03.154Z,14.89
2023-09-15T07:24:30.927Z,15.07
2023-09-15T07:26:58.832Z,15.86
2023-09-15T07:29:29.572Z,15.44
2023-09-15T07:31:58.810Z,15.33
2023-09-15T07:36:56.148Z,15.52
2023-09-15T07:39:24.014Z,15.64
2023-09-15T07:41:51.810Z,16.15
2023-09-15T07:44:19.931Z,16.63
2023-09-15T07:46:47.834Z,16.54
2023-09-15T07:49:15.742Z,16.53
2023-09-15T07:51:45.937Z,16.33
2023-09-15T07:54:14.260Z,16.50
2023-09-15T07:56:42.355Z,16.84
2023-09-15T07:59:10.704Z,17.13
2023-09-15T08:01:38.934Z,16.84
2023-09-15T08:04:07.320Z,16.79
2023-09-15T08:06:36.056Z,16.76
2023-09-15T08:09:06.812Z,16.68
2023-09-15T08:11:37.654Z,17.10
2023-09-15T08:14:05.901Z,17.16
2023-09-15T08:16:34.491Z,16.85
2023-09-15T08:19:02.800Z,16.83
2023-09-15T08:21:31.519Z,16.82
2023-09-15T08:24:00.605Z,17.11
2023-09-15T08:26:43.014Z,16.99
2023-09-15T08:29:13.910Z,17.19
2023-09-15T08:31:42.188Z,17.37
2023-09-15T08:34:10.448Z,17.30
2023-09-15T08:36:38.811Z,17.90
2023-09-15T08:39:06.984Z,17.48
2023-09-15T08:41:40.738Z,17.57
2023-09-15T08:44:10.645Z,17.70
2023-09-15T08:46:41.122Z,17.95
2023-09-15T08:49:10.651Z,17.85
2023-09-15T08:51:39.710Z,18.10
2023-09-15T08:54:08.795Z,18.03
2023-09-15T08:56:38.914Z,18.11
2023-09-15T08:59:08.526Z,18.30
2023-09-15T09:01:38.111Z,18.49
2023-09-15T09:04:07.160Z,18.89
2023-09-15T09:06:36.540Z,19.06
2023-09-15T09:09:05.402Z,19.07
2023-09-15T09:11:34.323Z,19.08
2023-09-15T09:14:06.778Z,19.05
2023-09-15T09:16:35.333Z,19.27
2023-09-15T09:19:07.444Z,19.63
2023-09-15T09:21:35.984Z,19.72
2023-09-15T09:24:04.159Z,19.78
2023-09-15T09:26:32.526Z,19.85
2023-09-15T09:29:01.628Z,19.67
2023-09-15T09:31:32.441Z,19.67
2023-09-15T09:34:01.702Z,19.65
2023-09-15T09:36:30.443Z,19.97
2023-09-15T09:39:00.811Z,20.00
2023-09-15T09:41:30.674Z,20.62
2023-09-15T09:44:05.597Z,20.98
2023-09-15T09:46:37.304Z,21.35
2023-09-15T09:49:06.219Z,21.48
2023-09-15T09:51:36.615Z,21.74
2023-09-15T09:54:05.811Z,21.71
2023-09-15T09:56:35.200Z,21.27
2023-09-15T09:59:11.430Z,21.62
2023-09-15T10:01:41.113Z,22.16
2023-09-15T10:04:09.370Z,21.48
2023-09-15T10:06:39.389Z,22.01
2023-09-15T10:09:08.279Z,21.95
2023-09-15T10:11:36.656Z,22.02
2023-09-15T10:14:06.164Z,22.20
2023-09-15T10:16:35.209Z,22.22
2023-09-15T10:19:05.679Z,22.34
2023-09-15T10:21:37.261Z,22.22
2023-09-15T10:24:10.830Z,22.17
2023-09-15T10:26:43.040Z,22.13
2023-09-15T10:29:13.969Z,21.94
2023-09-15T10:31:43.555Z,21.66
2023-09-15T10:34:14.175Z,21.46
2023-09-15T10:36:45.391Z,21.81
2023-09-15T10:39:15.249Z,21.48
2023-09-15T10:41:43.822Z,21.28
2023-09-15T10:44:13.037Z,21.59
2023-09-15T10:46:42.365Z,22.02
2023-09-15T10:49:19.972Z,21.97
2023-09-15T10:51:56.299Z,22.19
2023-09-15T10:54:26.778Z,22.18
2023-09-15T10:56:58.048Z,22.62
2023-09-15T10:59:27.885Z,22.40
2023-09-15T11:01:57.059Z,22.77
2023-09-15T11:04:29.880Z,23.63
2023-09-15T11:06:59.761Z,24.29
2023-09-15T11:09:27.935Z,24.87
2023-09-15T11:11:56.200Z,25.53
2023-09-15T11:14:25.392Z,25.82
2023-09-15T11:16:55.537Z,25.35
2023-09-15T11:19:27.674Z,25.70
2023-09-15T11:21:56.114Z,26.53
2023-09-15T11:24:25.329Z,26.57
2023-09-15T11:26:53.798Z,27.38
2023-09-15T11:29:26.708Z,27.51
2023-09-15T11:31:57.699Z,27.22
2023-09-15T11:34:29.033Z,28.23
2023-09-15T11:37:00.966Z,27.36
2023-09-15T11:39:31.002Z,27.01
2023-09-15T11:41:59.519Z,27.36
2023-09-15T11:44:31.183Z,26.29
2023-09-15T11:47:01.286Z,27.59
2023-09-15T11:49:31.923Z,28.02
2023-09-15T11:52:01.123Z,27.87
2023-09-15T11:54:29.773Z,27.71
2023-09-15T11:56:58.980Z,28.57
2023-09-15T11:59:27.381Z,28.03
2023-09-15T12:01:59.706Z,27.39
2023-09-15T12:04:30.730Z,28.00
2023-09-15T12:07:00.256Z,28.66
2023-09-15T12:09:29.143Z,29.79
2023-09-15T12:11:57.485Z,30.60
2023-09-15T12:14:26.299Z,30.43
2023-09-15T12:16:58.356Z,30.31
2023-09-15T12:19:29.438Z,30.25
2023-09-15T12:22:01.221Z,29.42
2023-09-15T12:24:30.496Z,30.12
2023-09-15T12:27:00.596Z,29.14
2023-09-15T12:29:29.348Z,28.38
2023-09-15T12:31:58.851Z,27.74
2023-09-15T12:34:28.957Z,27.73
2023-09-15T12:36:56.982Z,27.93
2023-09-15T12:39:26.640Z,28.86
2023-09-15T12:42:12.921Z,28.93
2023-09-15T12:44:42.661Z,29.34
2023-09-15T12:47:11.075Z,29.52
2023-09-15T12:49:39.612Z,29.14
2023-09-15T12:52:07.791Z,28.76
2023-09-15T12:54:37.344Z,28.98
2023-09-15T12:57:06.179Z,28.94
2023-09-15T12:59:35.708Z,29.06
2023-09-15T13:02:04.440Z,28.63
2023-09-15T13:04:33.413Z,28.65
2023-09-15T13:07:02.467Z,28.85
2023-09-15T13:09:32.789Z,28.90
2023-09-15T13:12:02.910Z,29.53
2023-09-15T13:14:32.113Z,29.07
2023-09-15T13:17:01.417Z,28.15
2023-09-15T13:19:30.700Z,28.44
2023-09-15T13:21:59.517Z,28.75
2023-09-15T13:24:29.268Z,28.98
2023-09-15T13:26:57.600Z,28.70
2023-09-15T13:29:28.340Z,28.43
2023-09-15T13:31:57.249Z,28.52
2023-09-15T13:34:26.295Z,29.25
2023-09-15T13:36:55.025Z,29.13
2023-09-15T13:39:24.638Z,28.57
2023-09-15T13:41:52.893Z,28.23
2023-09-15T13:44:21.924Z,28.48
2023-09-15T13:46:51.860Z,28.45
2023-09-15T13:49:20.401Z,29.26
2023-09-15T13:51:49.050Z,28.78
2023-09-15T13:54:19.071Z,28.12
2023-09-15T13:56:47.353Z,28.19
2023-09-15T13:59:16.127Z,28.31
2023-09-15T14:01:44.650Z,28.83
2023-09-15T14:04:17.755Z,28.06
2023-09-15T14:06:48.319Z,28.57
2023-09-15T14:09:18.925Z,28.21
2023-09-15T14:11:47.995Z,27.61
2023-09-15T14:14:16.441Z,27.83
2023-09-15T14:16:45.587Z,28.20
2023-09-15T14:19:15.689Z,28.47
2023-09-15T14:21:45.767Z,28.53
2023-09-15T14:24:16.379Z,28.27
2023-09-15T14:26:44.806Z,28.09
2023-09-15T14:29:14.744Z,27.99
2023-09-15T14:31:43.780Z,28.34
2023-09-15T14:34:13.121Z,28.18
2023-09-15T14:36:43.569Z,28.04
2023-09-15T14:39:12.469Z,28.35
2023-09-15T14:41:41.036Z,28.39
2023-09-15T14:44:11.039Z,27.71
2023-09-15T14:46:39.349Z,27.79
2023-09-15T14:49:07.797Z,27.84
2023-09-15T14:51:37.210Z,27.42
2023-09-15T14:54:07.627Z,27.06
2023-09-15T14:56:36.240Z,26.45
2023-09-15T14:59:04.607Z,25.72
2023-09-15T15:01:33.110Z,24.99
2023-09-15T15:04:01.509Z,24.83
2023-09-15T15:06:29.702Z,25.14
2023-09-15T15:08:58.407Z,25.39
2023-09-15T15:11:28.095Z,25.60
2023-09-15T15:13:56.807Z,25.32
2023-09-15T15:16:25.974Z,25.19
2023-09-15T15:19:02.660Z,25.13
2023-09-15T15:21:34.459Z,25.06
2023-09-15T15:24:03.044Z,24.82
2023-09-15T15:26:33.062Z,24.54
2023-09-15T15:29:03.055Z,24.61
2023-09-15T15:31:31.721Z,24.42
2023-09-15T15:34:01.360Z,24.45
2023-09-15T15:36:31.501Z,24.69
2023-09-15T15:39:00.286Z,24.58
2023-09-15T15:41:28.870Z,24.48
2023-09-15T15:43:58.576Z,24.41
2023-09-15T15:46:27.301Z,24.34
2023-09-15T15:48:55.936Z,24.21
2023-09-15T15:51:24.366Z,24.21
2023-09-15T15:53:53.211Z,23.99
2023-09-15T15:56:21.614Z,23.80
2023-09-15T15:58:50.366Z,23.57
2023-09-15T16:01:20.767Z,23.89
2023-09-15T16:03:49.015Z,23.90
2023-09-15T16:06:17.319Z,23.62
2023-09-15T16:08:45.632Z,23.57
2023-09-15T16:11:16.374Z,23.48
2023-09-15T16:13:44.951Z,23.37
2023-09-15T16:16:13.826Z,23.42
2023-09-15T16:18:43.375Z,23.28
2023-09-15T16:21:11.679Z,23.18
2023-09-15T16:23:40.529Z,23.01
2023-09-15T16:26:09.218Z,22.85
2023-09-15T16:28:38.856Z,22.82
2023-09-15T16:31:06.477Z,22.68
2023-09-15T16:33:35.415Z,22.53
2023-09-15T16:36:06.092Z,22.40
2023-09-15T16:38:34.481Z,22.54
2023-09-15T16:41:03.765Z,22.66
2023-09-15T16:43:33.959Z,22.46
2023-09-15T16:46:02.811Z,22.33
2023-09-15T16:48:31.718Z,22.22
2023-09-15T16:51:00.646Z,22.15
2023-09-15T16:53:30.497Z,22.10
2023-09-15T16:55:59.034Z,21.95
2023-09-15T16:58:27.440Z,21.85
2023-09-15T17:00:58.480Z,21.81
2023-09-15T17:03:27.119Z,21.75
2023-09-15T17:05:55.872Z,21.66
2023-09-15T17:08:24.495Z,21.55
2023-09-15T17:10:54.029Z,21.48
2023-09-15T17:13:22.444Z,21.48
2023-09-15T17:15:51.396Z,21.41
2023-09-15T17:18:20.222Z,21.28
2023-09-15T17:20:48.609Z,21.23
2023-09-15T17:23:16.957Z,21.16
2023-09-15T17:25:45.091Z,21.08
2023-09-15T17:28:14.857Z,21.11
2023-09-15T17:30:43.062Z,21.02
2023-09-15T17:33:12.007Z,21.02
2023-09-15T17:35:40.935Z,20.97
2023-09-15T17:38:09.523Z,20.92
2023-09-15T17:40:39.216Z,20.92
2023-09-15T17:43:09.162Z,20.78
2023-09-15T17:45:40.009Z,20.74
2023-09-15T17:48:08.379Z,20.73
2023-09-15T17:50:36.953Z,20.63
2023-09-15T17:53:06.084Z,20.58
2023-09-15T17:55:36.969Z,20.55
2023-09-15T17:58:06.153Z,20.53
2023-09-15T18:00:34.444Z,20.50
2023-09-15T18:03:04.785Z,20.51
2023-09-15T18:05:40.064Z,20.46
2023-09-15T18:08:13.788Z,20.40
2023-09-15T18:10:47.304Z,20.35
2023-09-15T18:13:16.949Z,20.31
2023-09-15T18:15:45.899Z,20.35
2023-09-15T18:18:16.036Z,20.33
2023-09-15T18:20:44.695Z,20.37
2023-09-15T18:23:15.041Z,20.28
2023-09-15T18:25:48.476Z,20.31
2023-09-15T18:28:18.743Z,20.27
2023-09-15T18:30:46.976Z,20.22
2023-09-15T18:33:19.414Z,20.16
2023-09-15T18:35:51.040Z,20.08
2023-09-15T18:38:21.807Z,20.06
2023-09-15T18:40:51.530Z,20.08
2023-09-15T18:43:20.342Z,20.02
2023-09-15T18:45:50.369Z,19.98
2023-09-15T18:48:20.788Z,19.98
2023-09-15T18:50:48.787Z,19.90
2023-09-15T18:53:19.912Z,19.88
2023-09-15T18:55:49.238Z,19.88
2023-09-15T18:58:19.062Z,19.87
2023-09-15T19:00:47.742Z,19.85
2023-09-15T19:03:16.635Z,19.88
2023-09-15T19:05:48.273Z,19.83
2023-09-15T19:08:16.762Z,19.79
2023-09-15T19:10:45.113Z,19.80
2023-09-15T19:13:27.241Z,19.83
2023-09-15T19:16:01.525Z,19.80
2023-09-15T19:18:30.684Z,19.68
2023-09-15T19:21:00.471Z,19.60
2023-09-15T19:23:29.310Z,19.59
2023-09-15T19:26:00.244Z,19.60
2023-09-15T19:28:28.690Z,19.61
2023-09-15T19:30:58.248Z,19.59
2023-09-15T19:33:27.194Z,19.58
2023-09-15T19:35:55.992Z,19.46
2023-09-15T19:38:26.330Z,19.41
2023-09-15T19:40:55.398Z,19.34
2023-09-15T19:43:24.212Z,19.35
2023-09-15T19:45:53.666Z,19.34
2023-09-15T19:48:21.858Z,19.34
2023-09-15T19:50:51.615Z,19.31
2023-09-15T19:53:21.231Z,19.25
2023-09-15T19:55:52.169Z,19.29
2023-09-15T19:58:20.698Z,19.27
2023-09-15T20:00:50.528Z,19.27
2023-09-15T20:03:20.348Z,19.26
2023-09-15T20:05:48.802Z,19.21
2023-09-15T20:08:18.057Z,19.14
2023-09-15T20:10:47.519Z,19.11
2023-09-15T20:13:19.975Z,19.21
2023-09-15T20:15:50.159Z,19.13
2023-09-15T20:18:19.856Z,19.07
2023-09-15T20:20:48.933Z,19.13
2023-09-15T20:23:17.956Z,19.08
2023-09-15T20:25:47.620Z,19.08
2023-09-15T20:28:18.467Z,19.04
2023-09-15T20:30:46.704Z,18.98
2023-09-15T20:33:15.541Z,18.94
2023-09-15T20:35:45.129Z,18.90
2023-09-15T20:38:13.225Z,18.94
2023-09-15T20:40:41.474Z,19.03
2023-09-15T20:43:10.687Z,18.82
2023-09-15T20:45:40.811Z,18.77
2023-09-15T20:48:09.220Z,18.76
2023-09-15T20:50:37.601Z,18.73
2023-09-15T20:53:06.050Z,18.77
2023-09-15T20:55:34.536Z,18.69
2023-09-15T20:58:04.756Z,18.70
2023-09-15T21:00:34.371Z,18.65
2023-09-15T21:03:04.916Z,18.64
2023-09-15T21:05:33.160Z,18.67
2023-09-15T21:08:02.241Z,18.66
2023-09-15T21:10:30.836Z,18.68
2023-09-15T21:13:00.411Z,18.57
2023-09-15T21:15:29.169Z,18.62
2023-09-15T21:17:57.547Z,18.55
2023-09-15T21:20:27.611Z,18.63
2023-09-15T21:22:57.646Z,18.43
2023-09-15T21:25:26.184Z,18.33
2023-09-15T21:27:54.377Z,18.25
2023-09-15T21:30:23.161Z,18.29
2023-09-15T21:32:51.200Z,18.35
2023-09-15T21:35:20.154Z,18.49
2023-09-15T21:37:50.274Z,18.43
2023-09-15T21:40:19.050Z,18.62
2023-09-15T21:42:47.951Z,18.44
2023-09-15T21:45:16.227Z,18.65
2023-09-15T21:47:44.604Z,18.59
2023-09-15T21:50:12.894Z,18.67
2023-09-15T21:52:42.398Z,18.87
2023-09-15T21:55:12.748Z,18.95
2023-09-15T21:57:43.978Z,18.52
2023-09-15T22:01:14.337Z,18.26
2023-09-15T22:03:44.968Z,18.40
2023-09-15T22:06:13.945Z,18.60
2023-09-15T22:08:42.925Z,18.33
2023-09-15T22:11:12.945Z,18.09
2023-09-15T22:13:44.199Z,17.97
2023-09-15T22:16:12.355Z,17.96
2023-09-15T22:18:41.119Z,18.07
2023-09-15T22:21:10.474Z,18.37
2023-09-15T22:23:38.882Z,18.22
2023-09-15T22:26:07.428Z,18.18
2023-09-15T22:28:37.829Z,18.12
2023-09-15T22:31:12.194Z,17.99
2023-09-15T22:33:42.319Z,17.78
2023-09-15T22:36:12.299Z,17.77
2023-09-15T22:38:42.862Z,17.88
2023-09-15T22:41:17.901Z,17.99
2023-09-15T22:43:48.917Z,17.68
2023-09-15T22:46:20.091Z,17.63
2023-09-15T22:48:49.726Z,17.59
2023-09-15T22:51:18.555Z,17.45
2023-09-15T22:53:46.722Z,17.47
2023-09-15T22:56:14.995Z,17.45
2023-09-15T22:58:44.563Z,17.43
2023-09-15T23:01:14.485Z,17.39
2023-09-15T23:03:43.100Z,17.42
2023-09-15T23:06:11.921Z,17.46
2023-09-15T23:08:41.016Z,17.52
2023-09-15T23:11:10.165Z,17.47
2023-09-15T23:13:38.475Z,17.56
2023-09-15T23:16:08.777Z,17.31
2023-09-15T23:18:38.574Z,17.29
2023-09-15T23:21:07.565Z,17.35
2023-09-15T23:23:36.294Z,17.30
2023-09-15T23:26:05.195Z,17.38
2023-09-15T23:28:33.462Z,17.30
2023-09-15T23:31:01.817Z,17.31
2023-09-15T23:33:30.434Z,17.27
2023-09-15T23:36:06.412Z,17.31
2023-09-15T23:38:35.480Z,17.37
2023-09-15T23:41:03.853Z,17.31
2023-09-15T23:43:31.905Z,17.35
2023-09-15T23:46:00.150Z,17.28
2023-09-15T23:48:28.542Z,17.27
2023-09-15T23:50:57.070Z,17.36
2023-09-15T23:53:26.992Z,17.35
2023-09-15T23:55:55.857Z,17.30
2023-09-15T23:58:23.964Z,17.26
